Time;durP1;ratioP1;P1;durP2;ratioP2;P2;SDS_P1;SDS_P2;PMS_P1;PMS_P2;Temp;Humidity;BMP_temperature;BMP_pressure;BME280_temperature;BME280_humidity;BME280_pressure;Samples;Min_cycle;Max_cycle;Signal;HPM_P1;HPM_P2
2021/03/27 00:02:30;;;;;;;6.93;3.33;;;10.50;99.90;;;;;;4930267;29;21037;-77
2021/03/27 00:05:07;;;;;;;5.37;3.07;;;10.40;99.90;;;;;;4931724;29;20454;-78
2021/03/27 00:07:42;;;;;;;5.23;2.67;;;10.30;1.00;;;;;;4932297;29;20552;-78
2021/03/27 00:10:18;;;;;;;5.27;2.63;;;10.20;99.90;;;;;;4932823;29;20537;-78
2021/03/27 00:12:49;;;;;;;2.17;1.90;;;10.10;99.90;;;;;;4932642;29;20536;-79
2021/03/27 00:15:21;;;;;;;2.47;1.70;;;10.10;99.90;;;;;;4933800;29;20558;-77
2021/03/27 00:17:51;;;;;;;2.13;1.97;;;10.00;99.90;;;;;;4933837;29;20488;-77
2021/03/27 00:20:24;;;;;;;3.20;1.87;;;9.90;99.90;;;;;;4921731;29;20485;-77
2021/03/27 00:22:59;;;;;;;3.20;1.80;;;9.80;99.90;;;;;;4916745;29;21008;-78
2021/03/27 00:25:29;;;;;;;4.87;2.70;;;9.70;1.00;;;;;;4913294;29;21198;-77
2021/03/27 00:28:04;;;;;;;2.53;2.30;;;9.70;1.00;;;;;;4916443;29;20998;-77
2021/03/27 00:30:37;;;;;;;2.73;2.43;;;9.60;1.00;;;;;;4915491;29;20522;-78
2021/03/27 00:33:05;;;;;;;4.07;2.30;;;9.50;1.00;;;;;;4933479;29;20497;-79
2021/03/27 00:35:35;;;;;;;2.60;2.20;;;9.50;1.00;;;;;;4937423;29;20866;-78
2021/03/27 00:38:05;;;;;;;3.50;2.72;;;9.50;1.00;;;;;;4937448;29;20450;-78
2021/03/27 00:40:39;;;;;;;2.27;1.80;;;9.40;1.00;;;;;;4936068;29;20675;-78
2021/03/27 00:43:10;;;;;;;3.90;2.33;;;9.30;1.00;;;;;;4921418;29;20836;-77
2021/03/27 00:45:41;;;;;;;2.83;1.95;;;9.20;1.00;;;;;;4927827;29;20473;-77
2021/03/27 00:48:13;;;;;;;2.40;1.83;;;9.20;1.00;;;;;;4935257;29;20321;-78
2021/03/27 00:50:44;;;;;;;4.40;1.95;;;9.10;1.00;;;;;;4934928;29;20579;-78
2021/03/27 00:53:15;;;;;;;3.47;1.93;;;9.00;99.90;;;;;;4933757;29;20204;-78
2021/03/27 00:55:49;;;;;;;2.80;1.70;;;9.00;1.00;;;;;;4936686;29;20587;-78
2021/03/27 00:58:21;;;;;;;2.88;2.22;;;8.90;1.00;;;;;;4937271;29;20323;-78
2021/03/27 01:00:49;;;;;;;2.10;1.90;;;8.90;1.00;;;;;;4937091;29;20294;-78
2021/03/27 01:03:20;;;;;;;2.10;1.90;;;8.80;1.00;;;;;;4936332;29;20449;-77
2021/03/27 01:05:49;;;;;;;1.92;1.77;;;8.80;1.00;;;;;;4921739;29;20261;-78
2021/03/27 01:08:18;;;;;;;1.80;1.70;;;8.70;1.00;;;;;;4928513;29;20689;-79
2021/03/27 01:10:50;;;;;;;2.53;1.95;;;8.70;1.00;;;;;;4934848;29;20457;-77
2021/03/27 01:13:21;;;;;;;2.85;1.60;;;8.70;2.30;;;;;;4933250;29;20300;-78
2021/03/27 01:15:52;;;;;;;2.38;1.98;;;8.60;99.90;;;;;;4933576;29;20234;-77
2021/03/27 01:18:23;;;;;;;3.85;1.85;;;8.50;1.00;;;;;;4936217;29;20248;-77
2021/03/27 01:20:53;;;;;;;2.20;1.80;;;8.50;1.00;;;;;;4936702;29;20729;-77
2021/03/27 01:23:21;;;;;;;2.05;1.80;;;8.50;1.00;;;;;;4936720;29;20293;-77
2021/03/27 01:25:48;;;;;;;3.05;2.03;;;8.40;1.00;;;;;;4933973;29;20269;-77
2021/03/27 01:28:25;;;;;;;2.20;2.00;;;8.40;99.90;;;;;;4921399;29;20292;-77
2021/03/27 01:31:03;;;;;;;2.03;1.83;;;8.40;99.90;;;;;;4928174;29;20229;-79
2021/03/27 01:33:35;;;;;;;2.83;2.30;;;8.30;49.30;;;;;;4934141;29;20562;-79
2021/03/27 01:36:15;;;;;;;7.03;2.38;;;8.30;99.90;;;;;;4934002;29;20254;-77
2021/03/27 01:38:49;;;;;;;2.45;2.25;;;8.30;99.90;;;;;;4932447;29;20254;-76
2021/03/27 01:41:34;;;;;;;2.53;2.33;;;8.20;1.00;;;;;;4936159;29;20303;-76
2021/03/27 01:44:14;;;;;;;2.05;1.65;;;8.20;99.90;;;;;;4935066;29;20586;-76
2021/03/27 01:47:03;;;;;;;2.83;2.00;;;8.10;99.90;;;;;;4936173;29;20282;-78
2021/03/27 01:49:41;;;;;;;2.65;1.90;;;8.10;1.00;;;;;;4924946;29;20699;-77
2021/03/27 01:52:19;;;;;;;1.42;1.33;;;8.10;99.90;;;;;;4919250;29;20223;-77
2021/03/27 01:54:55;;;;;;;3.00;1.65;;;8.00;1.00;;;;;;4913663;29;20224;-77
2021/03/27 01:57:31;;;;;;;2.35;1.60;;;8.00;1.00;;;;;;4914614;29;20322;-77
2021/03/27 02:00:01;;;;;;;3.55;1.77;;;7.90;1.00;;;;;;4915129;29;20586;-76
2021/03/27 02:02:45;;;;;;;5.75;1.60;;;7.90;1.00;;;;;;4930456;29;20299;-76
2021/03/27 02:05:19;;;;;;;4.50;1.30;;;7.80;1.00;;;;;;4936213;29;20233;-76
2021/03/27 02:07:51;;;;;;;2.80;1.70;;;7.80;1.00;;;;;;4937811;29;20286;-76
2021/03/27 02:10:27;;;;;;;4.70;1.70;;;7.80;99.90;;;;;;4936463;29;20283;-76
2021/03/27 02:13:00;;;;;;;4.35;1.80;;;7.70;99.90;;;;;;4920973;29;20203;-77
2021/03/27 02:15:39;;;;;;;4.28;2.25;;;7.70;99.90;;;;;;4916497;29;20649;-77
2021/03/27 02:18:13;;;;;;;4.03;2.10;;;7.70;99.90;;;;;;4914508;29;20290;-78
2021/03/27 02:21:03;;;;;;;4.05;2.40;;;7.70;99.90;;;;;;4912984;29;20233;-77
2021/03/27 02:23:40;;;;;;;2.42;1.75;;;7.60;99.90;;;;;;4918112;29;20255;-77
2021/03/27 02:26:33;;;;;;;3.55;2.15;;;7.60;99.90;;;;;;4934409;29;20294;-77
2021/03/27 02:29:27;;;;;;;4.30;1.90;;;7.60;99.90;;;;;;4934268;29;20733;-77
2021/03/27 02:31:59;;;;;;;2.15;1.90;;;7.60;99.90;;;;;;4934479;29;20199;-78
2021/03/27 02:34:38;;;;;;;2.40;1.60;;;7.60;99.90;;;;;;4923095;29;20320;-77
2021/03/27 02:37:08;;;;;;;5.30;1.85;;;7.60;99.90;;;;;;4923413;29;20317;-77
2021/03/27 02:39:47;;;;;;;2.03;1.75;;;7.50;99.90;;;;;;4931602;29;20261;-77
2021/03/27 02:42:31;;;;;;;4.03;1.88;;;7.50;99.90;;;;;;4933019;29;20210;-77
2021/03/27 02:45:06;;;;;;;5.03;2.80;;;7.50;99.90;;;;;;4932919;29;20221;-77
2021/03/27 02:47:44;;;;;;;4.70;2.20;;;7.50;1.00;;;;;;4933508;29;20198;-77
2021/03/27 02:50:22;;;;;;;2.13;1.90;;;7.40;1.00;;;;;;4935053;29;20206;-78
2021/03/27 02:52:57;;;;;;;3.85;2.10;;;7.40;1.00;;;;;;4934931;29;20292;-78
2021/03/27 02:55:31;;;;;;;3.30;2.03;;;7.40;99.90;;;;;;4931931;29;20781;-77
2021/03/27 02:58:08;;;;;;;3.50;2.20;;;7.40;99.90;;;;;;4919892;29;20192;-76
2021/03/27 03:00:43;;;;;;;5.47;2.53;;;7.30;99.90;;;;;;4898945;29;20196;-76
2021/03/27 03:03:19;;;;;;;3.78;1.92;;;7.30;99.90;;;;;;4913743;29;20372;-77
2021/03/27 03:05:50;;;;;;;3.60;2.20;;;7.30;99.90;;;;;;4913816;29;20290;-78
2021/03/27 03:08:23;;;;;;;3.83;1.80;;;7.30;99.90;;;;;;4917022;29;20285;-77
2021/03/27 03:10:57;;;;;;;3.67;2.00;;;7.30;99.90;;;;;;4934633;29;20670;-80
2021/03/27 03:13:30;;;;;;;3.45;2.03;;;7.30;66.40;;;;;;4934724;29;20287;-78
2021/03/27 03:16:07;;;;;;;5.78;2.05;;;7.30;1.00;;;;;;4934802;29;20258;-77
2021/03/27 03:18:47;;;;;;;5.30;2.38;;;7.30;1.00;;;;;;4925256;29;20628;-77
2021/03/27 03:21:23;;;;;;;3.60;2.38;;;7.20;1.00;;;;;;4919716;29;20294;-78
2021/03/27 03:23:59;;;;;;;3.28;2.05;;;7.20;1.00;;;;;;4931911;29;20253;-77
2021/03/27 03:26:34;;;;;;;3.72;2.22;;;7.20;1.00;;;;;;4930683;29;20238;-77
2021/03/27 03:29:12;;;;;;;4.50;2.30;;;7.20;61.90;;;;;;4932457;29;20287;-76
2021/03/27 03:31:49;;;;;;;5.07;2.20;;;7.20;17.20;;;;;;4933342;29;20213;-77
2021/03/27 03:34:27;;;;;;;5.38;2.10;;;7.20;31.00;;;;;;4934174;29;20222;-78
2021/03/27 03:37:03;;;;;;;7.03;2.10;;;7.20;1.00;;;;;;4934242;29;20324;-77
2021/03/27 03:39:45;;;;;;;3.13;2.20;;;7.20;1.00;;;;;;4934183;29;20210;-77
2021/03/27 03:42:41;;;;;;;6.22;2.40;;;7.20;1.00;;;;;;4918888;29;20191;-76
2021/03/27 03:45:14;;;;;;;2.35;1.73;;;7.20;1.00;;;;;;4927647;29;20719;-76
2021/03/27 03:47:49;;;;;;;3.30;2.00;;;7.20;1.00;;;;;;4931715;29;20283;-76
2021/03/27 03:50:28;;;;;;;5.68;1.95;;;7.20;1.00;;;;;;4932464;29;20285;-76
2021/03/27 03:53:15;;;;;;;8.02;2.20;;;7.20;1.00;;;;;;4932522;29;20207;-77
2021/03/27 03:55:58;;;;;;;5.97;1.60;;;7.20;1.00;;;;;;4932983;29;20206;-77
2021/03/27 03:58:44;;;;;;;4.55;2.33;;;7.20;1.00;;;;;;4934243;29;20210;-76
2021/03/27 04:01:17;;;;;;;11.05;2.30;;;7.20;1.00;;;;;;4936344;29;20289;-76
2021/03/27 04:03:52;;;;;;;7.05;2.40;;;7.20;1.00;;;;;;4927798;29;20274;-76
2021/03/27 04:06:25;;;;;;;5.28;2.33;;;7.20;1.00;;;;;;4925925;29;20205;-76
2021/03/27 04:08:56;;;;;;;4.25;2.10;;;7.20;99.90;;;;;;4935799;29;20712;-76
2021/03/27 04:11:39;;;;;;;9.85;2.47;;;7.20;99.90;;;;;;4934598;29;20287;-75
2021/03/27 04:14:15;;;;;;;6.55;2.75;;;7.20;99.90;;;;;;4934577;29;20215;-76
2021/03/27 04:16:44;;;;;;;5.07;2.60;;;7.20;99.90;;;;;;4937150;29;20322;-76
2021/03/27 04:19:17;;;;;;;3.85;1.90;;;7.20;99.90;;;;;;4936564;29;20289;-76
2021/03/27 04:22:02;;;;;;;4.63;1.80;;;7.10;99.90;;;;;;4936570;29;20208;-75
2021/03/27 04:24:34;;;;;;;4.57;1.90;;;7.10;99.90;;;;;;4937506;29;20246;-76
2021/03/27 04:27:07;;;;;;;4.40;2.58;;;7.10;82.90;;;;;;4922514;29;20282;-76
2021/03/27 04:29:38;;;;;;;6.28;2.28;;;7.00;1.00;;;;;;4929659;29;20203;-77
2021/03/27 04:32:25;;;;;;;5.93;2.45;;;7.00;1.00;;;;;;4935396;29;20290;-76
2021/03/27 04:35:00;;;;;;;3.72;2.15;;;6.90;1.00;;;;;;4935530;29;20575;-76
2021/03/27 04:37:34;;;;;;;5.13;2.03;;;6.80;1.00;;;;;;4935356;29;20703;-77
2021/03/27 04:40:07;;;;;;;7.78;2.20;;;6.80;1.00;;;;;;4936085;29;20223;-77
2021/03/27 04:42:42;;;;;;;3.63;1.55;;;6.80;1.00;;;;;;4936489;29;20230;-77
2021/03/27 04:45:17;;;;;;;4.05;1.85;;;6.70;1.00;;;;;;4937469;29;20755;-77
2021/03/27 04:47:47;;;;;;;4.95;2.00;;;6.70;1.00;;;;;;4931380;29;20198;-77
2021/03/27 04:50:21;;;;;;;4.03;2.17;;;6.60;1.00;;;;;;4936523;29;20194;-78
2021/03/27 04:52:56;;;;;;;6.18;1.80;;;6.60;1.00;;;;;;4914721;29;20305;-77
2021/03/27 04:55:30;;;;;;;3.10;1.80;;;6.60;1.00;;;;;;4915853;29;20314;-77
2021/03/27 04:58:13;;;;;;;13.40;2.60;;;6.50;1.00;;;;;;4914527;29;20222;-77
2021/03/27 05:00:52;;;;;;;5.30;2.55;;;6.50;1.00;;;;;;4923993;29;20207;-77
2021/03/27 05:03:27;;;;;;;4.07;1.70;;;6.40;1.00;;;;;;4935565;29;20648;-77
2021/03/27 05:05:59;;;;;;;6.35;2.00;;;6.40;1.00;;;;;;4935785;29;20293;-77
2021/03/27 05:08:55;;;;;;;5.85;1.90;;;6.30;1.00;;;;;;4936942;29;20602;-77
2021/03/27 05:11:29;;;;;;;3.22;1.50;;;6.30;1.00;;;;;;4921446;29;20302;-77
2021/03/27 05:14:07;;;;;;;4.82;1.90;;;6.30;1.00;;;;;;4918870;29;20306;-77
2021/03/27 05:16:38;;;;;;;8.35;2.08;;;6.30;38.40;;;;;;4915725;29;20333;-78
2021/03/27 05:19:11;;;;;;;7.90;2.35;;;6.30;56.00;;;;;;4915472;29;20294;-77
2021/03/27 05:21:48;;;;;;;10.05;2.55;;;6.30;93.00;;;;;;4915710;29;20195;-77
2021/03/27 05:24:25;;;;;;;8.80;1.80;;;6.30;99.90;;;;;;4935633;29;20313;-77
2021/03/27 05:27:10;;;;;;;10.38;2.92;;;6.30;99.90;;;;;;4935368;29;20202;-77
2021/03/27 05:29:51;;;;;;;10.65;2.05;;;6.30;99.90;;;;;;4936937;29;20294;-76
2021/03/27 05:32:32;;;;;;;5.07;1.92;;;6.30;99.90;;;;;;4931126;29;20206;-78
2021/03/27 05:35:06;;;;;;;11.35;2.25;;;6.40;99.90;;;;;;4921525;29;20217;-77
2021/03/27 05:37:43;;;;;;;9.38;3.22;;;6.40;99.90;;;;;;4933608;29;20272;-77
2021/03/27 05:40:50;;;;;;;9.40;2.35;;;6.40;66.00;;;;;;4934402;29;20306;-76
2021/03/27 05:43:36;;;;;;;8.27;2.25;;;6.40;1.00;;;;;;4932787;29;20198;-76
2021/03/27 05:46:44;;;;;;;6.82;2.20;;;6.50;1.00;;;;;;4935495;29;20250;-76
2021/03/27 05:49:36;;;;;;;4.57;1.90;;;6.50;1.00;;;;;;4935952;29;20670;-76
2021/03/27 05:52:24;;;;;;;8.20;2.70;;;6.60;1.00;;;;;;4936179;29;20231;-77
2021/03/27 05:55:14;;;;;;;4.38;1.83;;;6.60;1.00;;;;;;4929457;29;20764;-77
2021/03/27 05:58:01;;;;;;;6.03;1.90;;;6.60;1.00;;;;;;4920595;29;20232;-77
2021/03/27 06:00:39;;;;;;;7.22;3.05;;;6.70;1.00;;;;;;4914215;29;20608;-77
2021/03/27 06:03:28;;;;;;;8.15;2.38;;;6.80;1.00;;;;;;4914738;29;20556;-77
2021/03/27 06:06:22;;;;;;;6.75;2.20;;;6.80;1.00;;;;;;4915027;29;20286;-79
2021/03/27 06:09:12;;;;;;;7.15;2.38;;;6.90;1.00;;;;;;4933938;29;20609;-78
2021/03/27 06:11:44;;;;;;;10.48;2.85;;;6.90;1.00;;;;;;4934498;29;20196;-79
2021/03/27 06:14:35;;;;;;;10.05;2.63;;;6.90;1.00;;;;;;4935870;29;20315;-77
2021/03/27 06:17:22;;;;;;;9.27;2.35;;;6.90;1.00;;;;;;4930678;29;20291;-77
2021/03/27 06:20:18;;;;;;;10.77;3.00;;;7.00;1.00;;;;;;4919540;29;20555;-77
2021/03/27 06:23:14;;;;;;;11.52;3.35;;;7.00;1.00;;;;;;4932376;29;20209;-77
2021/03/27 06:26:03;;;;;;;7.00;2.50;;;7.10;1.00;;;;;;4932914;29;20653;-77
2021/03/27 06:29:00;;;;;;;8.02;2.65;;;7.20;1.00;;;;;;4933163;29;20193;-77
2021/03/27 06:31:35;;;;;;;7.05;1.95;;;7.30;1.00;;;;;;4935007;29;20206;-78
2021/03/27 06:34:32;;;;;;;7.82;2.50;;;7.40;1.00;;;;;;4935174;29;20255;-79
2021/03/27 06:37:23;;;;;;;9.88;2.60;;;7.50;99.90;;;;;;4935272;29;20324;-75
2021/03/27 06:40:10;;;;;;;13.83;3.23;;;7.60;99.90;;;;;;4920300;29;21076;-77
2021/03/27 06:42:53;;;;;;;9.07;2.38;;;7.70;99.90;;;;;;4914922;29;20500;-78
2021/03/27 06:45:39;;;;;;;4.70;2.13;;;7.70;99.90;;;;;;4912464;29;20222;-77
2021/03/27 06:48:35;;;;;;;3.10;1.83;;;7.80;99.90;;;;;;4913542;29;20484;-77
2021/03/27 06:51:29;;;;;;;6.35;2.20;;;7.80;99.90;;;;;;4921581;29;20307;-77
2021/03/27 06:54:23;;;;;;;5.50;2.25;;;7.80;99.90;;;;;;4934961;29;20247;-77
2021/03/27 06:57:01;;;;;;;8.07;1.88;;;7.60;99.90;;;;;;4933876;29;20323;-76
2021/03/27 06:59:57;;;;;;;5.95;1.88;;;7.50;1.00;;;;;;4933756;29;20580;-77
2021/03/27 07:02:40;;;;;;;6.57;1.60;;;7.30;99.90;;;;;;4918383;29;20206;-78
2021/03/27 07:05:33;;;;;;;2.85;1.60;;;7.30;1.00;;;;;;4915088;29;20310;-77
2021/03/27 07:08:10;;;;;;;2.97;1.98;;;7.10;1.00;;;;;;4913450;29;20282;-77
2021/03/27 07:10:59;;;;;;;1.33;1.00;;;6.90;1.00;;;;;;4914090;29;20289;-77
2021/03/27 07:13:50;;;;;;;1.83;1.20;;;6.80;1.00;;;;;;4922262;29;20286;-77
2021/03/27 07:16:30;;;;;;;1.80;1.00;;;6.60;1.00;;;;;;4934729;29;20318;-77
2021/03/27 07:19:29;;;;;;;7.45;1.30;;;6.50;1.00;;;;;;4934920;29;20293;-78
2021/03/27 07:22:12;;;;;;;2.10;1.90;;;6.40;1.00;;;;;;4934451;29;20319;-77
2021/03/27 07:24:55;;;;;;;6.03;2.85;;;6.30;1.00;;;;;;4919529;29;20215;-77
2021/03/27 07:27:48;;;;;;;3.85;3.45;;;6.20;99.90;;;;;;4914931;29;20230;-77
2021/03/27 07:30:32;;;;;;;4.80;3.80;;;6.20;99.90;;;;;;4913153;29;20202;-76
2021/03/27 07:33:23;;;;;;;4.13;3.20;;;6.10;99.90;;;;;;4913168;29;20293;-77
2021/03/27 07:36:19;;;;;;;4.30;2.65;;;6.00;99.90;;;;;;4921232;29;20621;-75
2021/03/27 07:38:51;;;;;;;2.95;2.17;;;6.00;99.90;;;;;;4933924;29;20293;-80
2021/03/27 07:41:46;;;;;;;2.40;2.20;;;6.00;58.60;;;;;;4934234;29;20282;-77
2021/03/27 07:44:30;;;;;;;2.55;1.88;;;6.00;1.00;;;;;;4926811;29;20214;-77
2021/03/27 07:47:26;;;;;;;2.00;1.63;;;6.00;1.00;;;;;;4919312;29;20285;-78
2021/03/27 07:50:07;;;;;;;1.98;1.25;;;6.00;99.90;;;;;;4930963;29;20226;-77
2021/03/27 07:52:49;;;;;;;3.28;1.55;;;6.20;1.00;;;;;;4932001;29;20261;-77
2021/03/27 07:55:39;;;;;;;3.17;2.65;;;6.20;23.10;;;;;;4932162;29;20265;-78
2021/03/27 07:58:22;;;;;;;2.92;1.60;;;6.30;1.00;;;;;;4933670;29;20293;-76
2021/03/27 08:00:56;;;;;;;3.35;2.15;;;6.40;1.00;;;;;;4934135;29;20255;-78
2021/03/27 08:03:47;;;;;;;2.45;1.30;;;6.50;99.90;;;;;;4932932;29;20283;-76
2021/03/27 08:06:32;;;;;;;3.22;1.73;;;6.50;1.00;;;;;;4929674;29;20342;-77
2021/03/27 08:09:20;;;;;;;5.55;2.95;;;6.60;99.90;;;;;;4919181;29;20295;-77
2021/03/27 08:12:15;;;;;;;5.95;3.20;;;6.70;1.00;;;;;;4923157;29;20620;-83
2021/03/27 08:14:59;;;;;;;3.50;1.95;;;6.80;1.00;;;;;;4911516;29;20209;-77
2021/03/27 08:17:37;;;;;;;4.03;1.80;;;6.90;5.70;;;;;;4911341;29;20599;-78
2021/03/27 08:20:33;;;;;;;3.27;1.60;;;7.00;1.00;;;;;;4926676;29;20481;-76
2021/03/27 08:23:23;;;;;;;2.47;1.70;;;7.10;1.00;;;;;;4919077;29;20442;-77
2021/03/27 08:26:05;;;;;;;2.93;1.50;;;7.30;1.00;;;;;;4915467;29;20552;-76
2021/03/27 08:29:01;;;;;;;5.67;1.77;;;7.40;1.00;;;;;;4929150;29;20473;-75
2021/03/27 08:31:59;;;;;;;5.27;1.80;;;7.60;28.50;;;;;;4929739;29;20441;-76
2021/03/27 08:35:01;;;;;;;5.57;1.83;;;7.70;1.00;;;;;;4930626;29;20489;-75
2021/03/27 08:37:50;;;;;;;6.30;2.20;;;7.90;27.60;;;;;;4917556;29;20562;-74
2021/03/27 08:40:32;;;;;;;6.80;2.43;;;8.00;1.00;;;;;;4914197;29;20546;-77
2021/03/27 08:43:22;;;;;;;9.50;3.03;;;8.10;1.00;;;;;;4912687;29;20534;-76
2021/03/27 08:46:15;;;;;;;5.07;2.40;;;8.20;1.00;;;;;;4912785;29;21016;-77
2021/03/27 08:49:11;;;;;;;7.73;2.50;;;8.30;1.00;;;;;;4922484;29;20553;-77
2021/03/27 08:51:51;;;;;;;8.23;2.40;;;8.40;1.00;;;;;;4936196;29;21009;-77
2021/03/27 08:54:41;;;;;;;7.43;2.57;;;8.60;99.90;;;;;;4935925;29;20569;-75
2021/03/27 08:57:30;;;;;;;6.37;2.53;;;8.70;99.90;;;;;;4936143;29;20577;-76
2021/03/27 09:00:09;;;;;;;8.23;5.10;;;8.80;99.90;;;;;;4921917;29;20470;-75
2021/03/27 09:02:49;;;;;;;5.23;2.30;;;9.00;1.00;;;;;;4916290;29;20589;-77
2021/03/27 09:05:30;;;;;;;5.87;3.50;;;9.10;1.00;;;;;;4915788;29;20565;-76
2021/03/27 09:08:18;;;;;;;9.17;2.53;;;9.20;1.00;;;;;;4914546;29;20479;-76
2021/03/27 09:11:00;;;;;;;8.97;2.70;;;9.30;1.00;;;;;;4922176;29;20546;-76
2021/03/27 09:13:46;;;;;;;7.10;3.27;;;9.40;1.00;;;;;;4936968;29;20443;-75
2021/03/27 09:16:36;;;;;;;10.37;3.70;;;9.40;1.00;;;;;;4936736;29;20525;-75
2021/03/27 09:19:29;;;;;;;6.40;2.87;;;9.50;1.00;;;;;;4936779;29;20535;-77
2021/03/27 09:22:17;;;;;;;8.90;3.30;;;9.60;1.00;;;;;;4921669;29;20446;-76
2021/03/27 09:24:51;;;;;;;6.13;2.90;;;9.60;99.90;;;;;;4917324;29;21062;-75
2021/03/27 09:27:39;;;;;;;5.53;2.60;;;9.70;99.90;;;;;;4915347;29;20521;-76
2021/03/27 09:30:19;;;;;;;10.60;2.83;;;9.70;99.90;;;;;;4915381;29;20542;-75
2021/03/27 09:32:50;;;;;;;5.33;2.60;;;9.70;99.90;;;;;;4920920;29;20891;-76
2021/03/27 09:35:36;;;;;;;9.00;3.00;;;9.80;99.90;;;;;;4936508;29;20545;-76
2021/03/27 09:38:24;;;;;;;6.70;2.70;;;9.80;99.90;;;;;;4935290;29;20576;-76
2021/03/27 09:41:12;;;;;;;12.10;4.60;;;9.90;99.90;;;;;;4935394;29;20457;-77
2021/03/27 09:44:00;;;;;;;7.47;3.00;;;9.90;99.90;;;;;;4922635;29;20884;-76
2021/03/27 09:46:32;;;;;;;7.73;3.80;;;9.90;99.90;;;;;;4917539;29;20444;-76
2021/03/27 09:49:18;;;;;;;5.60;3.20;;;9.90;99.90;;;;;;4915090;29;20570;-76
2021/03/27 09:52:10;;;;;;;7.83;2.73;;;9.90;99.90;;;;;;4913919;29;20454;-76
2021/03/27 09:54:42;;;;;;;18.43;4.57;;;10.00;99.90;;;;;;4917363;29;20558;-77
2021/03/27 09:57:21;;;;;;;6.83;3.17;;;10.10;99.90;;;;;;4936110;29;20584;-77
2021/03/27 09:59:51;;;;;;;10.33;3.50;;;10.20;99.90;;;;;;4934475;29;20529;-77
2021/03/27 10:02:29;;;;;;;7.63;2.90;;;10.20;99.90;;;;;;4936003;29;20533;-76
2021/03/27 10:05:09;;;;;;;12.37;4.60;;;10.20;99.90;;;;;;4927096;29;20486;-76
2021/03/27 10:07:49;;;;;;;13.20;4.37;;;10.30;99.90;;;;;;4923255;29;20533;-77
2021/03/27 10:10:38;;;;;;;8.83;3.10;;;10.40;99.90;;;;;;4933385;29;21003;-76
2021/03/27 10:13:14;;;;;;;9.40;2.73;;;10.50;99.90;;;;;;4933525;29;20443;-77
2021/03/27 10:15:46;;;;;;;8.70;4.10;;;10.50;99.90;;;;;;4932331;29;20469;-76
2021/03/27 10:18:23;;;;;;;6.70;2.50;;;10.60;99.90;;;;;;4933876;29;20720;-76
2021/03/27 10:20:52;;;;;;;9.20;4.60;;;10.60;99.90;;;;;;4934387;29;20952;-76
2021/03/27 10:23:32;;;;;;;12.43;2.77;;;10.60;99.90;;;;;;4935721;29;20536;-78
2021/03/27 10:26:22;;;;;;;7.70;2.60;;;10.50;99.90;;;;;;4931750;29;20506;-77
2021/03/27 10:28:55;;;;;;;7.53;2.93;;;10.50;99.90;;;;;;4919894;29;20548;-77
2021/03/27 10:31:28;;;;;;;10.47;3.10;;;10.50;99.90;;;;;;4914763;29;20440;-77
2021/03/27 10:34:14;;;;;;;16.37;4.90;;;10.40;99.90;;;;;;4913994;29;20463;-77
2021/03/27 10:36:48;;;;;;;11.17;3.27;;;10.30;1.00;;;;;;4913926;29;20487;-77
2021/03/27 10:39:35;;;;;;;10.93;3.00;;;10.20;1.00;;;;;;4921964;29;20473;-77
2021/03/27 10:42:24;;;;;;;10.43;3.23;;;10.10;1.00;;;;;;4934351;29;21019;-76
2021/03/27 10:45:10;;;;;;;8.53;2.63;;;10.00;1.00;;;;;;4935048;29;20553;-76
2021/03/27 10:47:45;;;;;;;11.00;3.00;;;10.00;1.00;;;;;;4935049;29;20452;-77
2021/03/27 10:50:19;;;;;;;12.07;2.57;;;9.90;1.00;;;;;;4921343;29;20578;-77
2021/03/27 10:53:06;;;;;;;3.47;2.00;;;9.80;99.90;;;;;;4916969;29;20437;-77
2021/03/27 10:55:53;;;;;;;5.10;2.43;;;9.80;99.90;;;;;;4914016;29;20555;-76
2021/03/27 10:58:29;;;;;;;2.67;1.67;;;9.90;99.90;;;;;;4912924;29;20578;-76
2021/03/27 11:01:15;;;;;;;5.17;2.57;;;9.90;99.90;;;;;;4927167;29;20505;-76
2021/03/27 11:04:05;;;;;;;3.50;2.03;;;9.90;99.90;;;;;;4920080;29;20603;-78
2021/03/27 11:06:43;;;;;;;5.03;2.40;;;10.00;99.90;;;;;;4914468;29;20885;-79
2021/03/27 11:09:32;;;;;;;5.90;2.63;;;10.10;99.90;;;;;;4913217;29;20443;-77
2021/03/27 11:12:21;;;;;;;7.93;2.07;;;10.20;99.90;;;;;;4913342;29;20453;-78
2021/03/27 11:15:14;;;;;;;5.60;1.93;;;10.20;99.90;;;;;;4921568;29;20572;-77
2021/03/27 11:18:08;;;;;;;4.37;2.50;;;10.30;99.90;;;;;;4931870;29;20497;-77
2021/03/27 11:20:53;;;;;;;5.20;2.70;;;10.40;99.90;;;;;;4933759;29;20529;-78
2021/03/27 11:23:34;;;;;;;4.60;2.00;;;10.30;99.90;;;;;;4932844;29;20863;-77
2021/03/27 11:26:30;;;;;;;3.97;2.20;;;10.40;99.90;;;;;;4918464;29;20559;-78
2021/03/27 11:29:01;;;;;;;5.80;2.50;;;10.30;99.90;;;;;;4902454;29;20546;-76
2021/03/27 11:31:38;;;;;;;5.00;2.20;;;10.30;99.90;;;;;;4913239;29;20448;-76
2021/03/27 11:34:18;;;;;;;4.83;1.93;;;10.30;99.90;;;;;;4913432;29;20555;-75
2021/03/27 11:36:51;;;;;;;2.50;1.97;;;10.20;99.90;;;;;;4915963;29;20490;-75
2021/03/27 11:39:26;;;;;;;5.20;2.23;;;10.20;99.90;;;;;;4934666;29;20446;-75
2021/03/27 11:42:05;;;;;;;8.70;2.57;;;10.20;99.90;;;;;;4921510;29;20538;-76
2021/03/27 11:44:43;;;;;;;4.60;2.00;;;10.20;99.90;;;;;;4914018;29;20470;-76
2021/03/27 11:47:26;;;;;;;6.10;2.40;;;10.20;99.90;;;;;;4915875;29;20497;-77
2021/03/27 11:50:03;;;;;;;5.00;2.37;;;10.10;99.90;;;;;;4915775;29;20517;-76
2021/03/27 11:52:38;;;;;;;7.40;3.90;;;10.10;99.90;;;;;;4928421;29;20537;-77
2021/03/27 11:55:18;;;;;;;7.03;2.80;;;10.10;99.90;;;;;;4931272;29;20986;-77
2021/03/27 11:57:49;;;;;;;4.63;2.30;;;10.00;99.90;;;;;;4931966;29;20576;-76
2021/03/27 12:03:33;;;;;;;12.50;3.70;;;10.00;99.90;;;;;;4932865;29;20450;-77
2021/03/27 12:06:12;;;;;;;6.70;2.80;;;10.00;99.90;;;;;;4932140;29;20537;-77
2021/03/27 12:08:44;;;;;;;5.80;2.90;;;9.90;99.90;;;;;;4932876;29;20493;-78
2021/03/27 12:11:20;;;;;;;4.63;2.20;;;9.90;99.90;;;;;;4917018;29;20907;-76
2021/03/27 12:13:56;;;;;;;4.50;2.10;;;10.00;99.90;;;;;;4926098;29;21035;-77
2021/03/27 12:16:27;;;;;;;5.60;2.43;;;10.00;99.90;;;;;;4931240;29;20532;-76
2021/03/27 12:19:10;;;;;;;7.73;2.83;;;10.00;99.90;;;;;;4912324;29;20455;-77
2021/03/27 12:21:45;;;;;;;5.90;2.50;;;10.10;99.90;;;;;;4925812;29;20514;-76
2021/03/27 12:24:22;;;;;;;4.27;2.00;;;10.10;99.90;;;;;;4923747;29;20502;-77
2021/03/27 12:26:58;;;;;;;3.70;2.20;;;10.20;99.90;;;;;;4919427;29;20494;-78
2021/03/27 12:29:35;;;;;;;7.97;3.20;;;10.30;99.90;;;;;;4918248;29;20522;-76
2021/03/27 12:32:22;;;;;;;4.20;2.37;;;10.30;99.90;;;;;;4930913;29;20539;-76
2021/03/27 12:34:53;;;;;;;3.60;1.97;;;10.30;99.90;;;;;;4929923;29;20478;-76
2021/03/27 12:37:28;;;;;;;4.13;2.30;;;10.30;99.90;;;;;;4923231;29;20493;-75
2021/03/27 12:40:00;;;;;;;4.73;2.60;;;10.20;99.90;;;;;;4921402;29;20444;-75
2021/03/27 12:42:35;;;;;;;6.23;1.90;;;10.30;99.90;;;;;;4931007;29;20446;-74
2021/03/27 12:45:07;;;;;;;7.33;2.53;;;10.20;99.90;;;;;;4931368;29;20577;-76
2021/03/27 12:47:55;;;;;;;3.60;2.20;;;10.20;99.90;;;;;;4930715;29;20489;-77
2021/03/27 12:50:31;;;;;;;6.03;2.83;;;10.20;99.90;;;;;;4928206;29;20553;-76
2021/03/27 12:53:22;;;;;;;3.90;2.30;;;10.20;99.90;;;;;;4932621;29;20481;-78
2021/03/27 12:56:08;;;;;;;3.60;2.23;;;10.10;99.90;;;;;;4927141;29;20541;-75
2021/03/27 12:58:46;;;;;;;7.17;2.40;;;10.20;99.90;;;;;;4918582;29;20490;-75
2021/03/27 13:01:31;;;;;;;5.27;3.53;;;10.10;99.90;;;;;;4912135;29;20457;-78
2021/03/27 13:04:27;;;;;;;5.00;1.73;;;10.10;99.90;;;;;;4916580;29;20473;-75
2021/03/27 13:07:03;;;;;;;2.63;2.00;;;10.10;99.90;;;;;;4930152;29;21027;-75
2021/03/27 13:09:55;;;;;;;3.90;2.33;;;10.00;99.90;;;;;;4932269;29;20450;-75
2021/03/27 13:12:27;;;;;;;4.13;1.53;;;10.00;99.90;;;;;;4931436;29;21019;-76
2021/03/27 13:15:23;;;;;;;3.80;1.97;;;9.90;99.90;;;;;;4932515;29;20477;-75
2021/03/27 13:18:12;;;;;;;3.17;1.67;;;10.00;99.90;;;;;;4933110;29;21067;-77
2021/03/27 13:20:48;;;;;;;3.13;2.00;;;9.90;99.90;;;;;;4918935;29;20558;-76
2021/03/27 13:23:19;;;;;;;9.30;2.33;;;9.90;99.90;;;;;;4929450;29;21010;-77
2021/03/27 13:25:54;;;;;;;3.60;2.20;;;10.00;99.90;;;;;;4931663;29;20532;-75
2021/03/27 13:28:27;;;;;;;4.33;1.90;;;9.90;99.90;;;;;;4931196;29;20541;-77
2021/03/27 13:30:57;;;;;;;10.30;3.00;;;10.00;99.90;;;;;;4930577;29;21066;-76
2021/03/27 13:33:31;;;;;;;5.10;2.33;;;10.00;99.90;;;;;;4915073;29;20454;-75
2021/03/27 13:36:08;;;;;;;6.10;2.73;;;10.10;99.90;;;;;;4914242;29;20459;-77
2021/03/27 13:38:41;;;;;;;7.17;2.70;;;10.10;99.90;;;;;;4913011;29;20498;-76
2021/03/27 13:41:19;;;;;;;5.40;2.80;;;10.20;99.90;;;;;;4914162;29;20887;-76
2021/03/27 13:43:52;;;;;;;5.87;2.00;;;10.40;99.90;;;;;;4917973;29;20471;-75
2021/03/27 13:46:24;;;;;;;5.07;2.27;;;10.40;91.70;;;;;;4919631;29;20976;-76
2021/03/27 13:48:59;;;;;;;4.13;2.37;;;10.50;69.60;;;;;;4924693;29;20536;-77
2021/03/27 13:51:33;;;;;;;3.77;1.90;;;10.50;48.10;;;;;;4914976;29;20450;-76
2021/03/27 13:54:06;;;;;;;6.03;2.93;;;10.60;39.50;;;;;;4929840;29;20560;-76
2021/03/27 13:56:41;;;;;;;6.87;2.00;;;10.60;28.00;;;;;;4916105;29;20804;-75
2021/03/27 13:59:31;;;;;;;8.13;2.40;;;10.60;20.80;;;;;;4915620;29;20526;-76
2021/03/27 14:02:22;;;;;;;4.50;1.97;;;10.60;15.90;;;;;;4919370;29;20960;-75
2021/03/27 14:04:59;;;;;;;2.87;1.90;;;10.60;9.50;;;;;;4914560;29;20496;-78
2021/03/27 14:07:33;;;;;;;3.93;3.00;;;10.50;7.20;;;;;;4920785;29;20921;-76
2021/03/27 14:10:05;;;;;;;6.03;2.90;;;10.50;2.90;;;;;;4932289;29;20876;-76